Robert C. Seamans — WDA4486 — position and weather

sailwx.info

Track history (hours):
 
Tides and Currents Weather Stations Pressure Air Temp Water Temp Dewpoint Dewpoint Depression Visibility Wind Speed Wind Dir Waves Ship Positions

Oceanographic research ship Robert C. Seamans (USA)

Ship's website: http://www.sea.edu/sea2000/Supporting2000/RobertSeamansIntro.htm

Detailed information on ship capabilities available from University of Delaware's Ocean Information Center.

Owner: Sea Education Association Corporation, Woods Hole, MA. More information available from US FCC via Universal Licensing System and Coast Guard Vessel Documentation Center.

Last reported at 2015-Feb-14 03:19 UTC. Time now 2015-Mar-27 19:13 UTC.
Position S 36°03' E 175°16'.
Warning: this ship's position is 41 days out of date.

Type: Sailing vessel. MMSI: 369503000.

Date/timePositionNaut miles runAvg speedWind from/ knotsBaromVisibWave heightAir tempDewpointWater temp
2015-Feb-14 03:19S 36°03' E 175°16'4 3.9
2015-Feb-14 02:15S 36°07' E 175°16'19 0.7
2015-Feb-12 22:13S 36°25' E 175°09'20 7.6
2015-Feb-12 19:33S 36°44' E 175°01'6 5.9
2015-Feb-12 18:30S 36°49' E 174°56'0 0.0
2015-Feb-12 14:15S 36°49' E 174°56'0 0.0
2015-Feb-12 13:33S 36°49' E 174°56'0 0.0
2015-Feb-12 12:33S 36°49' E 174°56'0 0.0
2015-Feb-12 11:33S 36°49' E 174°56'0 0.0
2015-Feb-12 10:33S 36°49' E 174°56'0 0.0
2015-Feb-12 09:33S 36°49' E 174°56'0 0.0
2015-Feb-12 08:33S 36°49' E 174°56'0 0.0
2015-Feb-12 07:30S 36°49' E 174°56'0 0.0
2015-Feb-12 06:33S 36°49' E 174°56'0 0.0
2015-Feb-12 05:33S 36°49' E 174°56'0 0.0
2015-Feb-12 04:33S 36°49' E 174°56'0 0.0
2015-Feb-12 03:33S 36°49' E 174°56'3 2.1
2015-Feb-12 02:20S 36°49' E 174°53'5 6.2
2015-Feb-12 01:33S 36°50' E 174°47'1 0.9
2015-Feb-12 00:33S 36°50' E 174°46'0 0.0
2015-Feb-11 23:33S 36°50' E 174°46'0 0.0
2015-Feb-11 22:30S 36°50' E 174°46'0 0.0
2015-Feb-11 19:30S 36°50' E 174°46'0 0.0
2015-Feb-11 14:30S 36°50' E 174°46'0 0.0
2015-Feb-11 13:30S 36°50' E 174°46'0 0.0
2015-Feb-11 12:30S 36°50' E 174°46'0 0.0
2015-Feb-11 11:30S 36°50' E 174°46'0 0.0
2015-Feb-11 10:18S 36°50' E 174°46'0 0.0
2015-Feb-11 09:24S 36°50' E 174°46'0 0.0
2015-Feb-11 08:33S 36°50' E 174°46'0 0.0
2015-Feb-11 07:30S 36°50' E 174°46'0 0.0
2015-Feb-11 06:30S 36°50' E 174°46'0 0.0
2015-Feb-11 05:33S 36°50' E 174°46'0 0.0
2015-Feb-11 04:32S 36°50' E 174°46'0 0.0
2015-Feb-11 03:32S 36°50' E 174°46'0 0.0
2015-Feb-11 02:33S 36°50' E 174°46'0 0.0
2015-Feb-11 01:32S 36°50' E 174°46'0 0.0
2015-Feb-11 00:29S 36°50' E 174°46'0 0.0
2015-Feb-10 20:23S 36°50' E 174°46'0 0.0
2015-Feb-10 19:29S 36°50' E 174°46'0 0.0
2015-Feb-10 18:29S 36°50' E 174°46'0 0.0
2015-Feb-10 17:29S 36°50' E 174°46'0 0.0
2015-Feb-10 16:23S 36°50' E 174°46'0 0.0
2015-Feb-10 15:23S 36°50' E 174°46'0 0.0
2015-Feb-10 14:23S 36°50' E 174°46'0 0.0
2015-Feb-10 13:29S 36°50' E 174°46'0 0.0
2015-Feb-10 12:23S 36°50' E 174°46'0 0.0
2015-Feb-10 11:29S 36°50' E 174°46'0 0.0
2015-Feb-10 10:29S 36°50' E 174°46'0 0.0
2015-Feb-10 09:05S 36°50' E 174°46'0 0.0
2015-Feb-10 08:29S 36°50' E 174°46'0 0.0
2015-Feb-10 07:22S 36°50' E 174°46'0 0.0
2015-Feb-10 06:29S 36°50' E 174°46'0 0.0
2015-Feb-10 04:29S 36°50' E 174°46'0 0.0
2015-Feb-10 03:29S 36°50' E 174°46'0 0.0
2015-Feb-10 02:29S 36°50' E 174°46'0 0.0
2015-Feb-10 01:29S 36°50' E 174°46'0 0.0
2015-Feb-10 00:29S 36°50' E 174°46'0 0.0
2015-Feb-09 23:29S 36°50' E 174°46'0 0.0
2015-Feb-09 22:05S 36°50' E 174°46'0 0.0
2015-Feb-09 21:17S 36°50' E 174°46'0 0.0
2015-Feb-09 20:17S 36°50' E 174°46'0 0.0
2015-Feb-09 19:23S 36°50' E 174°46'0 0.0
2015-Feb-09 18:28S 36°50' E 174°46'0 0.0
2015-Feb-09 17:28S 36°50' E 174°46'0 0.0
2015-Feb-09 16:28S 36°50' E 174°46'0 0.0
2015-Feb-09 15:28S 36°50' E 174°46'0 0.0
2015-Feb-09 14:22S 36°50' E 174°46'0 0.0
2015-Feb-09 13:28S 36°50' E 174°46'0 0.0
2015-Feb-09 12:28S 36°50' E 174°46'0 0.0
2015-Feb-09 11:28S 36°50' E 174°46'0 0.0
2015-Feb-09 10:28S 36°50' E 174°46'0 0.0
2015-Feb-09 09:22S 36°50' E 174°46'0 0.0
2015-Feb-09 08:28S 36°50' E 174°46'0 0.0
2015-Feb-09 07:28S 36°50' E 174°46'0 0.0
2015-Feb-09 06:28S 36°50' E 174°46'0 0.0
2015-Feb-09 05:10S 36°50' E 174°46'0 0.0
2015-Feb-09 04:28S 36°50' E 174°46'0 0.0
2015-Feb-09 03:28S 36°50' E 174°46'0 0.0
2015-Feb-09 02:28S 36°50' E 174°46'0 0.0
2015-Feb-09 01:28S 36°50' E 174°46'0 0.0
2015-Feb-08 23:28S 36°50' E 174°46'0 0.0
2015-Feb-08 20:16S 36°50' E 174°46'0 0.0
2015-Feb-08 19:28S 36°50' E 174°46'0 0.0
2015-Feb-08 18:28S 36°50' E 174°46'0 0.0
2015-Feb-08 17:04S 36°50' E 174°46'0 0.0
2015-Feb-08 16:28S 36°50' E 174°46'0 0.0
2015-Feb-08 15:10S 36°50' E 174°46'0 0.0
2015-Feb-08 14:28S 36°50' E 174°46'0 0.0
2015-Feb-08 13:10S 36°50' E 174°46'0 0.0
2015-Feb-08 12:28S 36°50' E 174°46'0 0.0
2015-Feb-08 11:28S 36°50' E 174°46'0 0.0
2015-Feb-08 10:16S 36°50' E 174°46'0 0.0
2015-Feb-08 09:28S 36°50' E 174°46'0 0.0
2015-Feb-08 08:28S 36°50' E 174°46'0 0.0
2015-Feb-08 07:28S 36°50' E 174°46'0 0.0
2015-Feb-08 06:27S 36°50' E 174°46'0 0.0
2015-Feb-08 05:33S 36°50' E 174°46'0 0.0
2015-Feb-08 04:33S 36°50' E 174°46'0 0.0
2015-Feb-08 03:21S 36°50' E 174°46'0 0.0
2015-Feb-08 02:27S 36°50' E 174°46'0 0.0
2015-Feb-08 01:33S 36°50' E 174°46'0 0.0
2015-Feb-08 00:21S 36°50' E 174°46'0 0.0
2015-Feb-07 23:33S 36°50' E 174°46'0 0.0
2015-Feb-07 22:33S 36°50' E 174°46'0 0.0
2015-Feb-07 21:33S 36°50' E 174°46'0 0.0
2015-Feb-07 20:33S 36°50' E 174°46'0 0.0
2015-Feb-07 19:27S 36°50' E 174°46'0 0.0
2015-Feb-07 18:21S 36°50' E 174°46'0 0.0
2015-Feb-07 17:33S 36°50' E 174°46'0 0.0
2015-Feb-07 16:33S 36°50' E 174°46'0 0.0
2015-Feb-07 15:33S 36°50' E 174°46'0 0.0
2015-Feb-07 14:33S 36°50' E 174°46'0 0.0
2015-Feb-07 13:27S 36°50' E 174°46'0 0.0
2015-Feb-07 12:33S 36°50' E 174°46'0 0.0
2015-Feb-07 11:09S 36°50' E 174°46'0 0.0
2015-Feb-07 10:33S 36°50' E 174°46'0 0.0
2015-Feb-07 07:33S 36°50' E 174°46'0 0.0
2015-Feb-07 06:33S 36°50' E 174°46'0 0.0
2015-Feb-07 05:33S 36°50' E 174°46'0 0.0
2015-Feb-07 04:27S 36°50' E 174°46'0 0.0
2015-Feb-07 03:33S 36°50' E 174°46'0 0.0
2015-Feb-07 01:33S 36°50' E 174°46'0 0.0
2015-Feb-07 00:32S 36°50' E 174°46'0 0.0
2015-Feb-06 23:17S 36°50' E 174°46'0 0.0
2015-Feb-06 22:32S 36°50' E 174°46'0 0.0
2015-Feb-06 21:32S 36°50' E 174°46'0 0.0
2015-Feb-06 20:32S 36°50' E 174°46'0 0.0
2015-Feb-06 19:32S 36°50' E 174°46'0 0.0
2015-Feb-06 18:32S 36°50' E 174°46'0 0.0
2015-Feb-06 17:32S 36°50' E 174°46'0 0.0
2015-Feb-06 16:32S 36°50' E 174°46'0 0.0
2015-Feb-06 15:32S 36°50' E 174°46'0 0.0
2015-Feb-06 14:32S 36°50' E 174°46'0 0.0
2015-Feb-06 13:32S 36°50' E 174°46'0 0.0
2015-Feb-06 12:32S 36°50' E 174°46'0 0.0
2015-Feb-06 11:32S 36°50' E 174°46'0 0.0
2015-Feb-06 10:26S 36°50' E 174°46'0 0.0
2015-Feb-06 09:32S 36°50' E 174°46'0 0.0
2015-Feb-06 08:29S 36°50' E 174°46'0 0.0
2015-Feb-06 07:32S 36°50' E 174°46'0 0.0
2015-Feb-06 06:32S 36°50' E 174°46'0 0.0
2015-Feb-06 05:32S 36°50' E 174°46'0 0.0
2015-Feb-06 04:32S 36°50' E 174°46'0 0.0
2015-Feb-06 03:32S 36°50' E 174°46'0 0.0
2015-Feb-06 02:32S 36°50' E 174°46'0 0.0
2015-Feb-06 01:26S 36°50' E 174°46'0 0.0
2015-Feb-06 00:26S 36°50' E 174°46'0 0.0
2015-Feb-05 23:29S 36°50' E 174°46'0 0.0
2015-Feb-05 22:32S 36°50' E 174°46'0 0.0
2015-Feb-05 21:32S 36°50' E 174°46'0 0.0
2015-Feb-05 20:32S 36°50' E 174°46'0 0.0
2015-Feb-05 19:32S 36°50' E 174°46'0 0.0
2015-Feb-05 18:31S 36°50' E 174°46'0 0.0
2015-Feb-05 17:31S 36°50' E 174°46'0 0.0
2015-Feb-05 16:31S 36°50' E 174°46'0 0.0
2015-Feb-05 15:31S 36°50' E 174°46'0 0.0
2015-Feb-05 14:31S 36°50' E 174°46'0 0.0
2015-Feb-05 13:31S 36°50' E 174°46'0 0.0
2015-Feb-05 11:13S 36°50' E 174°46'0 0.0
2015-Feb-05 10:25S 36°50' E 174°46'0 0.0
2015-Feb-05 09:25S 36°50' E 174°46'0 0.0
2015-Feb-05 08:31S 36°50' E 174°46'0 0.0
2015-Feb-05 07:16S 36°50' E 174°46'0 0.0
2015-Feb-05 06:31S 36°50' E 174°46'0 0.0
2015-Feb-05 05:31S 36°50' E 174°46'0 0.0
2015-Feb-05 04:31S 36°50' E 174°46'0 0.0
2015-Feb-05 03:31S 36°50' E 174°46'0 0.0
2015-Feb-05 02:25S 36°50' E 174°46'0 0.0
2015-Feb-05 01:22S 36°50' E 174°46'0 0.0
2015-Feb-05 00:22S 36°50' E 174°46'0 0.0
2015-Feb-04 23:10S 36°50' E 174°46'0 0.0
2015-Feb-04 22:31S 36°50' E 174°46'0 0.0
2015-Feb-04 21:28S 36°50' E 174°46'0 0.0
2015-Feb-04 20:19S 36°50' E 174°46'0 0.0
2015-Feb-04 19:31S 36°50' E 174°46'0 0.0
2015-Feb-04 18:25S 36°50' E 174°46'0 0.0
2015-Feb-04 17:31S 36°50' E 174°46'0 0.0
2015-Feb-04 15:25S 36°50' E 174°46'0 0.0
2015-Feb-04 14:25S 36°50' E 174°46'0 0.0
2015-Feb-04 12:31S 36°50' E 174°46'0 0.0
2015-Feb-04 11:31S 36°50' E 174°46'0 0.0
2015-Feb-04 10:31S 36°50' E 174°46'0 0.0
2015-Feb-04 09:31S 36°50' E 174°46'0 0.0
2015-Feb-04 08:31S 36°50' E 174°46'0 0.0
2015-Feb-04 07:25S 36°50' E 174°46'0 0.0
2015-Feb-04 06:33S 36°50' E 174°46'0 0.0
2015-Feb-04 05:33S 36°50' E 174°46'0 0.0
2015-Feb-04 04:30S 36°50' E 174°46'0 0.0
2015-Feb-04 03:30S 36°50' E 174°46'  
Track history (hours):
 
Tides and Currents Weather Stations Pressure Air Temp Water Temp Dewpoint Dewpoint Depression Visibility Wind Speed Wind Dir Waves Ship Positions

Oceanographic research ship Robert C. Seamans (USA)

Ship's website: http://www.sea.edu/sea2000/Supporting2000/RobertSeamansIntro.htm

Detailed information on ship capabilities available from University of Delaware's Ocean Information Center.

Owner: Sea Education Association Corporation, Woods Hole, MA. More information available from US FCC via Universal Licensing System and Coast Guard Vessel Documentation Center.

Last reported at 2015-Feb-14 03:19 UTC. Time now 2015-Mar-27 19:13 UTC.
Position S 36°03' E 175°16'.
Warning: this ship's position is 41 days out of date.

Type: Sailing vessel. MMSI: 369503000.

Date/timePositionNaut miles runAvg speedWind from/ knotsBaromVisibWave heightAir tempDewpointWater temp
2015-Feb-14 03:19S 36°03' E 175°16'4 3.9
2015-Feb-14 02:15S 36°07' E 175°16'19 0.7
2015-Feb-12 22:13S 36°25' E 175°09'20 7.6
2015-Feb-12 19:33S 36°44' E 175°01'6 5.9
2015-Feb-12 18:30S 36°49' E 174°56'0 0.0
2015-Feb-12 14:15S 36°49' E 174°56'0 0.0
2015-Feb-12 13:33S 36°49' E 174°56'0 0.0
2015-Feb-12 12:33S 36°49' E 174°56'0 0.0
2015-Feb-12 11:33S 36°49' E 174°56'0 0.0
2015-Feb-12 10:33S 36°49' E 174°56'0 0.0
2015-Feb-12 09:33S 36°49' E 174°56'0 0.0
2015-Feb-12 08:33S 36°49' E 174°56'0 0.0
2015-Feb-12 07:30S 36°49' E 174°56'0 0.0
2015-Feb-12 06:33S 36°49' E 174°56'0 0.0
2015-Feb-12 05:33S 36°49' E 174°56'0 0.0
2015-Feb-12 04:33S 36°49' E 174°56'0 0.0
2015-Feb-12 03:33S 36°49' E 174°56'3 2.1
2015-Feb-12 02:20S 36°49' E 174°53'5 6.2
2015-Feb-12 01:33S 36°50' E 174°47'1 0.9
2015-Feb-12 00:33S 36°50' E 174°46'0 0.0
2015-Feb-11 23:33S 36°50' E 174°46'0 0.0
2015-Feb-11 22:30S 36°50' E 174°46'0 0.0
2015-Feb-11 19:30S 36°50' E 174°46'0 0.0
2015-Feb-11 14:30S 36°50' E 174°46'0 0.0
2015-Feb-11 13:30S 36°50' E 174°46'0 0.0
2015-Feb-11 12:30S 36°50' E 174°46'0 0.0
2015-Feb-11 11:30S 36°50' E 174°46'0 0.0
2015-Feb-11 10:18S 36°50' E 174°46'0 0.0
2015-Feb-11 09:24S 36°50' E 174°46'0 0.0
2015-Feb-11 08:33S 36°50' E 174°46'0 0.0
2015-Feb-11 07:30S 36°50' E 174°46'0 0.0
2015-Feb-11 06:30S 36°50' E 174°46'0 0.0
2015-Feb-11 05:33S 36°50' E 174°46'0 0.0
2015-Feb-11 04:32S 36°50' E 174°46'0 0.0
2015-Feb-11 03:32S 36°50' E 174°46'0 0.0
2015-Feb-11 02:33S 36°50' E 174°46'0 0.0
2015-Feb-11 01:32S 36°50' E 174°46'0 0.0
2015-Feb-11 00:29S 36°50' E 174°46'0 0.0
2015-Feb-10 20:23S 36°50' E 174°46'0 0.0
2015-Feb-10 19:29S 36°50' E 174°46'0 0.0
2015-Feb-10 18:29S 36°50' E 174°46'0 0.0
2015-Feb-10 17:29S 36°50' E 174°46'0 0.0
2015-Feb-10 16:23S 36°50' E 174°46'0 0.0
2015-Feb-10 15:23S 36°50' E 174°46'0 0.0
2015-Feb-10 14:23S 36°50' E 174°46'0 0.0
2015-Feb-10 13:29S 36°50' E 174°46'0 0.0
2015-Feb-10 12:23S 36°50' E 174°46'0 0.0
2015-Feb-10 11:29S 36°50' E 174°46'0 0.0
2015-Feb-10 10:29S 36°50' E 174°46'0 0.0
2015-Feb-10 09:05S 36°50' E 174°46'0 0.0
2015-Feb-10 08:29S 36°50' E 174°46'0 0.0
2015-Feb-10 07:22S 36°50' E 174°46'0 0.0
2015-Feb-10 06:29S 36°50' E 174°46'0 0.0
2015-Feb-10 04:29S 36°50' E 174°46'0 0.0
2015-Feb-10 03:29S 36°50' E 174°46'0 0.0
2015-Feb-10 02:29S 36°50' E 174°46'0 0.0
2015-Feb-10 01:29S 36°50' E 174°46'0 0.0
2015-Feb-10 00:29S 36°50' E 174°46'0 0.0
2015-Feb-09 23:29S 36°50' E 174°46'0 0.0
2015-Feb-09 22:05S 36°50' E 174°46'0 0.0
2015-Feb-09 21:17S 36°50' E 174°46'0 0.0
2015-Feb-09 20:17S 36°50' E 174°46'0 0.0
2015-Feb-09 19:23S 36°50' E 174°46'0 0.0
2015-Feb-09 18:28S 36°50' E 174°46'0 0.0
2015-Feb-09 17:28S 36°50' E 174°46'0 0.0
2015-Feb-09 16:28S 36°50' E 174°46'0 0.0
2015-Feb-09 15:28S 36°50' E 174°46'0 0.0
2015-Feb-09 14:22S 36°50' E 174°46'0 0.0
2015-Feb-09 13:28S 36°50' E 174°46'0 0.0
2015-Feb-09 12:28S 36°50' E 174°46'0 0.0
2015-Feb-09 11:28S 36°50' E 174°46'0 0.0
2015-Feb-09 10:28S 36°50' E 174°46'0 0.0
2015-Feb-09 09:22S 36°50' E 174°46'0 0.0
2015-Feb-09 08:28S 36°50' E 174°46'0 0.0
2015-Feb-09 07:28S 36°50' E 174°46'0 0.0
2015-Feb-09 06:28S 36°50' E 174°46'0 0.0
2015-Feb-09 05:10S 36°50' E 174°46'0 0.0
2015-Feb-09 04:28S 36°50' E 174°46'0 0.0
2015-Feb-09 03:28S 36°50' E 174°46'0 0.0
2015-Feb-09 02:28S 36°50' E 174°46'0 0.0
2015-Feb-09 01:28S 36°50' E 174°46'0 0.0
2015-Feb-08 23:28S 36°50' E 174°46'0 0.0
2015-Feb-08 20:16S 36°50' E 174°46'0 0.0
2015-Feb-08 19:28S 36°50' E 174°46'0 0.0
2015-Feb-08 18:28S 36°50' E 174°46'0 0.0
2015-Feb-08 17:04S 36°50' E 174°46'0 0.0
2015-Feb-08 16:28S 36°50' E 174°46'0 0.0
2015-Feb-08 15:10S 36°50' E 174°46'0 0.0
2015-Feb-08 14:28S 36°50' E 174°46'0 0.0
2015-Feb-08 13:10S 36°50' E 174°46'0 0.0
2015-Feb-08 12:28S 36°50' E 174°46'0 0.0
2015-Feb-08 11:28S 36°50' E 174°46'0 0.0
2015-Feb-08 10:16S 36°50' E 174°46'0 0.0
2015-Feb-08 09:28S 36°50' E 174°46'0 0.0
2015-Feb-08 08:28S 36°50' E 174°46'0 0.0
2015-Feb-08 07:28S 36°50' E 174°46'0 0.0
2015-Feb-08 06:27S 36°50' E 174°46'0 0.0
2015-Feb-08 05:33S 36°50' E 174°46'0 0.0
2015-Feb-08 04:33S 36°50' E 174°46'0 0.0
2015-Feb-08 03:21S 36°50' E 174°46'0 0.0
2015-Feb-08 02:27S 36°50' E 174°46'0 0.0
2015-Feb-08 01:33S 36°50' E 174°46'0 0.0
2015-Feb-08 00:21S 36°50' E 174°46'0 0.0
2015-Feb-07 23:33S 36°50' E 174°46'0 0.0
2015-Feb-07 22:33S 36°50' E 174°46'0 0.0
2015-Feb-07 21:33S 36°50' E 174°46'0 0.0
2015-Feb-07 20:33S 36°50' E 174°46'0 0.0
2015-Feb-07 19:27S 36°50' E 174°46'0 0.0
2015-Feb-07 18:21S 36°50' E 174°46'0 0.0
2015-Feb-07 17:33S 36°50' E 174°46'0 0.0
2015-Feb-07 16:33S 36°50' E 174°46'0 0.0
2015-Feb-07 15:33S 36°50' E 174°46'0 0.0
2015-Feb-07 14:33S 36°50' E 174°46'0 0.0
2015-Feb-07 13:27S 36°50' E 174°46'0 0.0
2015-Feb-07 12:33S 36°50' E 174°46'0 0.0
2015-Feb-07 11:09S 36°50' E 174°46'0 0.0
2015-Feb-07 10:33S 36°50' E 174°46'0 0.0
2015-Feb-07 07:33S 36°50' E 174°46'0 0.0
2015-Feb-07 06:33S 36°50' E 174°46'0 0.0
2015-Feb-07 05:33S 36°50' E 174°46'0 0.0
2015-Feb-07 04:27S 36°50' E 174°46'0 0.0
2015-Feb-07 03:33S 36°50' E 174°46'0 0.0
2015-Feb-07 01:33S 36°50' E 174°46'0 0.0
2015-Feb-07 00:32S 36°50' E 174°46'0 0.0
2015-Feb-06 23:17S 36°50' E 174°46'0 0.0
2015-Feb-06 22:32S 36°50' E 174°46'0 0.0
2015-Feb-06 21:32S 36°50' E 174°46'0 0.0
2015-Feb-06 20:32S 36°50' E 174°46'0 0.0
2015-Feb-06 19:32S 36°50' E 174°46'0 0.0
2015-Feb-06 18:32S 36°50' E 174°46'0 0.0
2015-Feb-06 17:32S 36°50' E 174°46'0 0.0
2015-Feb-06 16:32S 36°50' E 174°46'0 0.0
2015-Feb-06 15:32S 36°50' E 174°46'0 0.0
2015-Feb-06 14:32S 36°50' E 174°46'0 0.0
2015-Feb-06 13:32S 36°50' E 174°46'0 0.0
2015-Feb-06 12:32S 36°50' E 174°46'0 0.0
2015-Feb-06 11:32S 36°50' E 174°46'0 0.0
2015-Feb-06 10:26S 36°50' E 174°46'0 0.0
2015-Feb-06 09:32S 36°50' E 174°46'0 0.0
2015-Feb-06 08:29S 36°50' E 174°46'0 0.0
2015-Feb-06 07:32S 36°50' E 174°46'0 0.0
2015-Feb-06 06:32S 36°50' E 174°46'0 0.0
2015-Feb-06 05:32S 36°50' E 174°46'0 0.0
2015-Feb-06 04:32S 36°50' E 174°46'0 0.0
2015-Feb-06 03:32S 36°50' E 174°46'0 0.0
2015-Feb-06 02:32S 36°50' E 174°46'0 0.0
2015-Feb-06 01:26S 36°50' E 174°46'0 0.0
2015-Feb-06 00:26S 36°50' E 174°46'0 0.0
2015-Feb-05 23:29S 36°50' E 174°46'0 0.0
2015-Feb-05 22:32S 36°50' E 174°46'0 0.0
2015-Feb-05 21:32S 36°50' E 174°46'0 0.0
2015-Feb-05 20:32S 36°50' E 174°46'0 0.0
2015-Feb-05 19:32S 36°50' E 174°46'0 0.0
2015-Feb-05 18:31S 36°50' E 174°46'0 0.0
2015-Feb-05 17:31S 36°50' E 174°46'0 0.0
2015-Feb-05 16:31S 36°50' E 174°46'0 0.0
2015-Feb-05 15:31S 36°50' E 174°46'0 0.0
2015-Feb-05 14:31S 36°50' E 174°46'0 0.0
2015-Feb-05 13:31S 36°50' E 174°46'0 0.0
2015-Feb-05 11:13S 36°50' E 174°46'0 0.0
2015-Feb-05 10:25S 36°50' E 174°46'0 0.0
2015-Feb-05 09:25S 36°50' E 174°46'0 0.0
2015-Feb-05 08:31S 36°50' E 174°46'0 0.0
2015-Feb-05 07:16S 36°50' E 174°46'0 0.0
2015-Feb-05 06:31S 36°50' E 174°46'0 0.0
2015-Feb-05 05:31S 36°50' E 174°46'0 0.0
2015-Feb-05 04:31S 36°50' E 174°46'0 0.0
2015-Feb-05 03:31S 36°50' E 174°46'0 0.0
2015-Feb-05 02:25S 36°50' E 174°46'0 0.0
2015-Feb-05 01:22S 36°50' E 174°46'0 0.0
2015-Feb-05 00:22S 36°50' E 174°46'0 0.0
2015-Feb-04 23:10S 36°50' E 174°46'0 0.0
2015-Feb-04 22:31S 36°50' E 174°46'0 0.0
2015-Feb-04 21:28S 36°50' E 174°46'0 0.0
2015-Feb-04 20:19S 36°50' E 174°46'0 0.0
2015-Feb-04 19:31S 36°50' E 174°46'0 0.0
2015-Feb-04 18:25S 36°50' E 174°46'0 0.0
2015-Feb-04 17:31S 36°50' E 174°46'0 0.0
2015-Feb-04 15:25S 36°50' E 174°46'0 0.0
2015-Feb-04 14:25S 36°50' E 174°46'0 0.0
2015-Feb-04 12:31S 36°50' E 174°46'0 0.0
2015-Feb-04 11:31S 36°50' E 174°46'0 0.0
2015-Feb-04 10:31S 36°50' E 174°46'0 0.0
2015-Feb-04 09:31S 36°50' E 174°46'0 0.0
2015-Feb-04 08:31S 36°50' E 174°46'0 0.0
2015-Feb-04 07:25S 36°50' E 174°46'0 0.0
2015-Feb-04 06:33S 36°50' E 174°46'0 0.0
2015-Feb-04 05:33S 36°50' E 174°46'0 0.0
2015-Feb-04 04:30S 36°50' E 174°46'0 0.0
2015-Feb-04 03:30S 36°50' E 174°46'  

Dump ship's entire track history